Weather observations for the past three days for
Harry Reid International Airport
Metric (Imperial)
Date Time (pdt) Wind (kph) Vis. (km) Weather Sky Cond. Temperature (ºC) Relative Humidity Wind Chill (°C) Heat Index (°C) Pressure Precipitation (cm)
Air Dwpt 6 hour altimeter (cm) sea level (mb) 1 hr 3 hr 6 hr
Max. Min.
01 17:56 SW 28 G 39 16.09 A Few Clouds FEW120 34.4 -1.7 10% 32 75.82 1007.9
01 16:56 W 30 G 46 16.09 A Few Clouds FEW120 35 -3.9 36.1 31.7 8% 32 75.84 1008.2
01 15:56 S 24 G 41 16.09 A Few Clouds FEW120 35.6 -2.8 8% 33 75.87 1008.3
01 14:56 SW 30 G 43 16.09 A Few Clouds FEW120 35 -1.7 9% 32 75.9 1008.8
01 13:56 SW 22 G 37 16.09 A Few Clouds FEW120 35.6 0 10% 33 75.95 1009.4
01 12:56 SW 17 G 35 16.09 A Few Clouds FEW120 33.3 1.7 13% 31 76.02 1010.5
01 11:56 S 22 G 39 16.09 A Few Clouds FEW120 32.8 6.1 19% 31 76.07 1011.1
01 10:56 S 24 G 41 16.09 A Few Clouds FEW120 32.2 7.2 32.2 25.6 21% 30 76.1 1011.5
01 09:56 S 19 G 33 16.09 A Few Clouds FEW120 30.6 3.3 18% 29 76.1 1011.7
01 08:56 S 15 16.09 A Few Clouds FEW120 29.4 -2.2 13% 28 76.1 1011.7
01 07:56 S 11 16.09 A Few Clouds FEW120 FEW150 27.2 -0.6 16% 26 76.07 1011.4
01 06:56 S 13 16.09 A Few Clouds FEW120 FEW150 26.1 0.6 19% 26 76.05 1011.1
01 05:56 S 13 16.09 A Few Clouds FEW150 26.1 0.6 19% 26 76.02 1010.7
01 04:56 S 9 16.09 Fair CLR 26.7 2.2 31.7 26.7 20% 26 76.02 1010.5
01 03:56 S 17 16.09 A Few Clouds FEW150 27.2 2.8 21% 26 76.02 1010.4
01 02:56 S 13 16.09 A Few Clouds FEW220 27.8 3.3 21% 27 76 1010.2
01 01:56 S 11 16.09 A Few Clouds FEW220 28.3 2.8 19% 27 75.97 1009.7
01 00:56 Vrbl 11 16.09 Partly Cloudy FEW120 SCT220 29.4 0 15% 28 75.95 1009.6
31 23:56 S 17 16.09 Partly Cloudy FEW120 SCT220 30.6 -1.1 13% 29 75.92 1009.2
31 22:56 SW 22 G 37 16.09 A Few Clouds FEW120 FEW180 31.7 2.2 37.2 31.1 15% 30 75.9 1008.6
31 21:56 S 26 G 43 16.09 A Few Clouds FEW120 31.7 12.2 30% 31 75.84 1008.0
31 20:56 S 22 G 56 16.09 A Few Clouds FEW120 32.2 13.3 32% 31 75.79 1007.3
31 18:56 SW 24 G 43 16.09 A Few Clouds FEW120 FEW220 35 4.4 15% 33 75.72 1006.3
31 17:56 SW 24 G 41 16.09 A Few Clouds FEW120 FEW220 36.1 3.9 13% 34 75.69 1006.1
31 15:56 SW 20 G 50 16.09 Partly Cloudy SCT120 SCT220 37.2 5 14% 35 75.72 1006.1
31 13:56 SW 26 G 44 16.09 Partly Cloudy SCT120 37.8 6.1 14% 35 75.84 1007.8
31 12:56 Vrbl 7 16.09 A Few Clouds FEW120 35.6 8.9 19% 34 75.9 1008.9
31 11:56 S 17 G 33 16.09 A Few Clouds FEW120 34.4 8.9 21% 32 75.97 1009.9
31 10:56 Calm 16.09 A Few Clouds FEW120 FEW200 32.8 9.4 33.9 27.8 24% 31 76.02 1010.3
31 09:56 S 20 G 30 16.09 A Few Clouds FEW120 FEW200 32.8 8.3 22% 31 76.02 1010.4
31 08:56 S 13 G 30 16.09 A Few Clouds FEW120 FEW200 31.1 7.8 23% 29 76 1010.2
31 07:56 SE 17 16.09 A Few Clouds FEW120 FEW200 28.9 7.8 27% 28 75.97 1010.0
31 06:56 S 13 16.09 A Few Clouds FEW120 FEW220 28.3 7.2 26% 27 75.92 1009.0
31 05:56 S 11 16.09 A Few Clouds FEW220 28.3 7.8 27% 27 75.87 1008.4
31 04:56 S 13 16.09 A Few Clouds FEW250 28.9 7.2 32.2 28.9 25% 28 75.84 1008.1
31 03:56 S 9 16.09 A Few Clouds FEW250 28.9 7.2 25% 28 75.87 1008.3
31 02:56 S 9 16.09 A Few Clouds FEW240 29.4 6.1 23% 28 75.82 1007.7
31 01:56 S 13 16.09 A Few Clouds FEW240 30 4.4 20% 28 75.82 1007.7
31 00:56 S 6 16.09 A Few Clouds FEW240 30 5 20% 28 75.82 1007.6
30 23:56 SW 7 16.09 A Few Clouds FEW120 FEW240 31.1 7.8 23% 29 75.79 1007.3
30 22:56 S 7 16.09 Mostly Cloudy FEW120 BKN240 32.2 5 37.2 31.7 18% 30 75.79 1007.4
30 21:56 SE 9 16.09 Mostly Cloudy FEW120 BKN240 32.8 3.9 16% 31 75.79 1007.4
30 20:56 S 9 16.09 Partly Cloudy FEW120 SCT220 33.3 3.9 16% 31 75.79 1007.3
30 19:56 SW 13 16.09 Mostly Cloudy FEW120 BKN220 34.4 3.3 14% 32 75.72 1006.4
30 18:56 W 20 G 35 16.09 Mostly Cloudy FEW120 SCT200 BKN250 35.6 3.3 13% 33 75.69 1006.1
30 17:56 W 22 G 39 16.09 Mostly Cloudy FEW120 FEW200 BKN250 36.7 2.2 11% 34 75.72 1006.1
30 16:56 SW 30 G 43 16.09 Mostly Cloudy FEW120 FEW180 BKN250 37.2 4.4 38.3 34.4 13% 35 75.74 1006.5
30 15:56 SW 33 G 54 16.09 Mostly Cloudy and Breezy FEW120 FEW180 BKN250 37.8 6.1 14% 35 75.77 1006.8
30 14:56 SW 24 G 39 16.09 Mostly Cloudy FEW120 SCT180 BKN250 37.8 5.6 14% 35 75.82 1007.4
30 13:56 SW 24 G 44 16.09 Mostly Cloudy FEW120 SCT180 BKN250 37.2 5.6 14% 35 75.87 1008.3
30 12:56 SW 20 16.09 Mostly Cloudy FEW120 SCT180 BKN250 36.1 5 14% 34 75.92 1009.0
30 11:56 S 22 G 35 16.09 Mostly Cloudy FEW120 SCT180 BKN250 34.4 5 16% 32 75.95 1009.4
30 10:56 S 20 G 35 16.09 Mostly Cloudy FEW120 SCT180 BKN250 35 4.4 35 30 15% 33 75.97 1009.5
30 09:56 S 20 G 35 16.09 Partly Cloudy FEW120 FEW180 SCT250 33.3 4.4 16% 31 75.95 1009.3
30 08:56 S 11 16.09 Partly Cloudy FEW140 FEW180 SCT250 30.6 5 20% 29 75.95 1009.2
30 07:56 SE 15 16.09 Mostly Cloudy FEW140 SCT180 BKN250 31.1 5.6 20% 29 75.95 1009.2
30 06:56 SE 9 16.09 Mostly Cloudy FEW140 SCT180 BKN250 30 6.7 23% 28 75.92 1009.0
30 05:56 Vrbl 11 16.09 Partly Cloudy FEW120 SCT200 31.1 6.7 22% 29 75.87 1008.1
30 04:56 S 17 16.09 Partly Cloudy FEW120 SCT200 31.1 8.3 34.4 31.1 24% 29 75.79 1007.2
30 03:56 SW 37 G 54 16.09 Partly Cloudy and Breezy FEW120 SCT200 31.7 7.8 23% 30 75.74 1006.3
30 02:56 SW 26 16.09 Partly Cloudy FEW120 SCT200 31.7 8.9 24% 30 75.72 1006.2
30 01:56 SW 13 16.09 Partly Cloudy FEW120 SCT200 32.2 9.4 24% 30 75.74 1006.6
30 00:56 Calm 16.09 Partly Cloudy FEW120 SCT200 32.8 8.3 22% 31 75.77 1006.7
29 23:56 Vrbl 6 16.09 Partly Cloudy SCT120 SCT200 33.9 7.8 20% 32 75.79 1007.0
29 22:56 W 26 G 48 16.09 Mostly Cloudy SCT120 BKN200 34.4 8.3 39.4 34.4 20% 32 75.74 1006.5
29 21:56 W 33 16.09 Mostly Cloudy and Breezy BKN120 BKN200 35 8.3 19% 33 75.74 1006.5
29 20:56 W 28 G 44 16.09 Mostly Cloudy BKN120 BKN200 35.6 8.3 19% 34 75.74 1006.5
29 19:56 W 24 16.09 Mostly Cloudy BKN120 BKN200 36.7 8.3 17% 35 75.69 1005.7
29 18:56 SW 26 16.09 Mostly Cloudy SCT120 BKN200 BKN250 37.8 7.8 16% 36 75.67 1005.3
Date Time (pdt) Wind (kph) Vis. (km) Weather Sky Cond. Air Dwpt Max. Min. Relative Humidity Wind Chill (°C) Heat Index (°C) altimeter (cm) sea level (mb) 1 hr 3 hr 6 hr
6 hour
Temperature (ºC) Pressure Precipitation (cm)